Time;durP1;ratioP1;P1;durP2;ratioP2;P2;SDS_P1;SDS_P2;PMS_P1;PMS_P2;Temp;Humidity;BMP_temperature;BMP_pressure;BME280_temperature;BME280_humidity;BME280_pressure;Samples;Min_cycle;Max_cycle;Signal;HPM_P1;HPM_P2
2021/09/07 00:02:13;;;;;;;;;;;;;;;;;;5112456;28;19924;-72
2021/09/07 00:04:39;;;;;;;;;;;;;;;;;;5113511;28;19927;-72
2021/09/07 00:07:05;;;;;;;;;;;;;;;;;;5115868;28;19924;-72
2021/09/07 00:09:32;;;;;;;;;;;;;;;;;;5116623;28;19923;-72
2021/09/07 00:11:58;;;;;;;;;;;;;;;;;;5116207;28;19924;-72
2021/09/07 00:14:24;;;;;;;;;;;;;;;;;;5115629;28;19924;-72
2021/09/07 00:16:50;;;;;;;;;;;;;;;;;;5116153;28;19923;-72
2021/09/07 00:19:17;;;;;;;;;;;;;;;;;;5115845;28;20299;-72
2021/09/07 00:21:43;;;;;;;;;;;;;;;;;;5115799;28;19924;-72
2021/09/07 00:24:09;;;;;;;;;;;;;;;;;;5115407;28;19938;-71
2021/09/07 00:26:36;;;;;;;;;;;;;;;;;;5115714;28;20293;-72
2021/09/07 00:29:02;;;;;;;;;;;;;;;;;;5115437;28;19930;-72
2021/09/07 00:31:28;;;;;;;;;;;;;;;;;;5115855;28;19938;-72
2021/09/07 00:33:54;;;;;;;;;;;;;;;;;;5115570;28;20283;-72
2021/09/07 00:36:21;;;;;;;;;;;;;;;;;;5115278;28;19931;-72
2021/09/07 00:38:47;;;;;;;;;;;;;;;;;;5115519;28;19923;-72
2021/09/07 00:41:13;;;;;;;;;;;;;;;;;;5115180;28;19931;-72
2021/09/07 00:43:40;;;;;;;;;;;;;;;;;;5115693;28;19928;-72
2021/09/07 00:46:06;;;;;;;;;;;;;;;;;;5115110;28;20281;-72
2021/09/07 00:48:32;;;;;;;;;;;;;;;;;;5115206;28;19923;-72
2021/09/07 00:50:59;;;;;;;;;;;;;;;;;;5115535;28;19923;-72
2021/09/07 00:53:25;;;;;;;;;;;;;;;;;;5114876;28;20377;-72
2021/09/07 00:55:51;;;;;;;;;;;;;;;;;;5115442;28;19931;-72
2021/09/07 00:58:17;;;;;;;;;;;;;;;;;;5114809;28;20291;-72
2021/09/07 01:00:44;;;;;;;;;;;;;;;;;;5115308;28;19923;-71
2021/09/07 01:03:10;;;;;;;;;;;;;;;;;;5115050;28;19928;-72
2021/09/07 01:05:36;;;;;;;;;;;;;;;;;;5114907;28;20389;-72
2021/09/07 01:08:03;;;;;;;;;;;;;;;;;;5114649;28;19930;-72
2021/09/07 01:10:29;;;;;;;;;;;;;;;;;;5115422;28;19924;-72
2021/09/07 01:12:56;;;;;;;;;;;;;;;;;;5114730;28;20366;-72
2021/09/07 01:15:22;;;;;;;;;;;;;;;;;;5114352;28;19924;-72
2021/09/07 01:17:49;;;;;;;;;;;;;;;;;;5114260;28;19938;-72
2021/09/07 01:20:15;;;;;;;;;;;;;;;;;;5114364;28;20293;-72
2021/09/07 01:22:41;;;;;;;;;;;;;;;;;;5114473;28;19938;-72
2021/09/07 01:25:08;;;;;;;;;;;;;;;;;;5114610;28;19923;-72
2021/09/07 01:27:34;;;;;;;;;;;;;;;;;;5114920;28;19924;-72
2021/09/07 01:30:01;;;;;;;;;;;;;;;;;;5114430;28;19927;-72
2021/09/07 01:32:27;;;;;;;;;;;;;;;;;;5114591;28;20022;-72
2021/09/07 01:34:53;;;;;;;;;;;;;;;;;;5114811;28;19924;-72
2021/09/07 01:37:19;;;;;;;;;;;;;;;;;;5114101;28;20381;-72
2021/09/07 01:39:46;;;;;;;;;;;;;;;;;;5114516;28;19931;-72
2021/09/07 01:42:12;;;;;;;;;;;;;;;;;;5114334;28;19947;-72
2021/09/07 01:44:38;;;;;;;;;;;;;;;;;;5114171;28;19931;-72
2021/09/07 01:47:05;;;;;;;;;;;;;;;;;;5114244;28;19924;-71
2021/09/07 01:49:31;;;;;;;;;;;;;;;;;;5114268;28;19950;-71
2021/09/07 01:51:57;;;;;;;;;;;;;;;;;;5114053;28;19931;-72
2021/09/07 01:54:23;;;;;;;;;;;;;;;;;;5114020;28;19931;-71
2021/09/07 01:56:50;;;;;;;;;;;;;;;;;;5113980;28;19924;-71
2021/09/07 01:59:16;;;;;;;;;;;;;;;;;;5113885;28;19931;-71
2021/09/07 02:01:43;;;;;;;;;;;;;;;;;;5113971;28;20381;-71
2021/09/07 02:04:09;;;;;;;;;;;;;;;;;;5113894;28;19992;-71
2021/09/07 02:06:35;;;;;;;;;;;;;;;;;;5113905;28;19923;-72
2021/09/07 02:09:02;;;;;;;;;;;;;;;;;;5113884;28;19923;-71
2021/09/07 02:11:28;;;;;;;;;;;;;;;;;;5113619;28;20263;-72
2021/09/07 02:13:54;;;;;;;;;;;;;;;;;;5113480;28;19932;-72
2021/09/07 02:16:21;;;;;;;;;;;;;;;;;;5113656;28;19958;-72
2021/09/07 02:18:47;;;;;;;;;;;;;;;;;;5113624;28;19924;-72
2021/09/07 02:21:13;;;;;;;;;;;;;;;;;;5113295;28;19923;-72
2021/09/07 02:23:40;;;;;;;;;;;;;;;;;;5113400;28;19928;-72
2021/09/07 02:26:06;;;;;;;;;;;;;;;;;;5112992;28;20366;-71
2021/09/07 02:28:32;;;;;;;;;;;;;;;;;;5113760;28;19924;-72
2021/09/07 02:30:58;;;;;;;;;;;;;;;;;;5113348;28;20380;-72
2021/09/07 02:33:25;;;;;;;;;;;;;;;;;;5113391;28;19931;-72
2021/09/07 02:35:51;;;;;;;;;;;;;;;;;;5113799;28;19951;-73
2021/09/07 02:38:17;;;;;;;;;;;;;;;;;;5112899;28;19924;-72
2021/09/07 02:40:44;;;;;;;;;;;;;;;;;;5113673;28;19932;-72
2021/09/07 02:43:10;;;;;;;;;;;;;;;;;;5112923;28;20366;-72
2021/09/07 02:45:36;;;;;;;;;;;;;;;;;;5113112;28;19931;-72
2021/09/07 02:48:02;;;;;;;;;;;;;;;;;;5113137;28;19934;-72
2021/09/07 02:50:29;;;;;;;;;;;;;;;;;;5113200;28;19931;-72
2021/09/07 02:52:55;;;;;;;;;;;;;;;;;;5113254;28;19930;-72
2021/09/07 02:55:21;;;;;;;;;;;;;;;;;;5113101;28;19986;-72
2021/09/07 02:57:48;;;;;;;;;;;;;;;;;;5112962;28;20374;-72
2021/09/07 03:00:14;;;;;;;;;;;;;;;;;;5112885;28;19931;-72
2021/09/07 03:02:41;;;;;;;;;;;;;;;;;;5113252;28;19928;-72
2021/09/07 03:05:07;;;;;;;;;;;;;;;;;;5112875;28;19924;-72
2021/09/07 03:07:33;;;;;;;;;;;;;;;;;;5113219;28;19924;-72
2021/09/07 03:09:59;;;;;;;;;;;;;;;;;;5113256;28;19924;-72
2021/09/07 03:12:26;;;;;;;;;;;;;;;;;;5112545;28;19923;-72
2021/09/07 03:14:52;;;;;;;;;;;;;;;;;;5113113;28;19932;-72
2021/09/07 03:17:18;;;;;;;;;;;;;;;;;;5112553;28;20298;-72
2021/09/07 03:19:45;;;;;;;;;;;;;;;;;;5112691;28;19924;-72
2021/09/07 03:22:11;;;;;;;;;;;;;;;;;;5112724;28;19928;-71
2021/09/07 03:24:37;;;;;;;;;;;;;;;;;;5112666;28;20385;-71
2021/09/07 03:27:05;;;;;;;;;;;;;;;;;;5112774;28;19924;-71
2021/09/07 03:29:31;;;;;;;;;;;;;;;;;;5112708;28;20135;-71
2021/09/07 03:31:57;;;;;;;;;;;;;;;;;;5112955;28;19930;-71
2021/09/07 03:34:23;;;;;;;;;;;;;;;;;;5112579;28;20382;-71
2021/09/07 03:36:52;;;;;;;;;;;;;;;;;;5112252;28;20227;-70
2021/09/07 03:39:18;;;;;;;;;;;;;;;;;;5112816;28;19931;-71
2021/09/07 03:41:44;;;;;;;;;;;;;;;;;;5116797;28;19938;-72
2021/09/07 03:44:11;;;;;;;;;;;;;;;;;;5116385;28;20562;-71
2021/09/07 03:46:37;;;;;;;;;;;;;;;;;;5116865;28;19924;-71
2021/09/07 03:49:03;;;;;;;;;;;;;;;;;;5116509;28;19930;-72
2021/09/07 03:51:30;;;;;;;;;;;;;;;;;;5116297;28;20305;-72
2021/09/07 03:53:56;;;;;;;;;;;;;;;;;;5116275;28;19924;-72
2021/09/07 03:56:22;;;;;;;;;;;;;;;;;;5116318;28;19932;-72
2021/09/07 03:58:49;;;;;;;;;;;;;;;;;;5116085;28;20255;-72
2021/09/07 04:01:15;;;;;;;;;;;;;;;;;;5115922;28;20394;-72
2021/09/07 04:03:41;;;;;;;;;;;;;;;;;;5116101;28;19931;-71
2021/09/07 04:06:07;;;;;;;;;;;;;;;;;;5116190;28;19923;-71
2021/09/07 04:08:34;;;;;;;;;;;;;;;;;;5116156;28;19924;-71
2021/09/07 04:11:00;;;;;;;;;;;;;;;;;;5116292;28;19932;-71
2021/09/07 04:13:27;;;;;;;;;;;;;;;;;;5115813;28;20010;-71
2021/09/07 04:15:53;;;;;;;;;;;;;;;;;;5116246;28;19928;-71
2021/09/07 04:18:19;;;;;;;;;;;;;;;;;;5115409;28;20381;-71
2021/09/07 04:20:45;;;;;;;;;;;;;;;;;;5116083;28;19931;-71
2021/09/07 04:23:12;;;;;;;;;;;;;;;;;;5115571;28;19924;-71
2021/09/07 04:25:38;;;;;;;;;;;;;;;;;;5115702;28;19923;-71
2021/09/07 04:28:04;;;;;;;;;;;;;;;;;;5115758;28;19931;-71
2021/09/07 04:30:31;;;;;;;;;;;;;;;;;;5115617;28;20374;-73
2021/09/07 04:32:57;;;;;;;;;;;;;;;;;;5115660;28;19924;-71
2021/09/07 04:35:23;;;;;;;;;;;;;;;;;;5115569;28;19928;-71
2021/09/07 04:37:49;;;;;;;;;;;;;;;;;;5115375;28;19931;-70
2021/09/07 04:40:16;;;;;;;;;;;;;;;;;;5115354;28;19930;-71
2021/09/07 04:42:43;;;;;;;;;;;;;;;;;;5115734;28;20040;-71
2021/09/07 04:45:09;;;;;;;;;;;;;;;;;;5115115;28;20370;-73
2021/09/07 04:47:35;;;;;;;;;;;;;;;;;;5115513;28;19930;-71
2021/09/07 04:50:02;;;;;;;;;;;;;;;;;;5115405;28;19946;-72
2021/09/07 04:52:28;;;;;;;;;;;;;;;;;;5113874;28;20382;-71
2021/09/07 04:54:54;;;;;;;;;;;;;;;;;;5115218;28;19930;-71
2021/09/07 04:57:20;;;;;;;;;;;;;;;;;;5115204;28;19928;-71
2021/09/07 04:59:47;;;;;;;;;;;;;;;;;;5115201;28;20462;-71
2021/09/07 05:02:13;;;;;;;;;;;;;;;;;;5114770;28;19928;-71
2021/09/07 05:04:39;;;;;;;;;;;;;;;;;;5115360;28;19924;-71
2021/09/07 05:07:06;;;;;;;;;;;;;;;;;;5115003;28;20285;-72
2021/09/07 05:09:32;;;;;;;;;;;;;;;;;;5114907;28;19930;-72
2021/09/07 05:11:58;;;;;;;;;;;;;;;;;;5115167;28;19924;-73
2021/09/07 05:14:25;;;;;;;;;;;;;;;;;;5114435;28;20405;-75
2021/09/07 05:16:51;;;;;;;;;;;;;;;;;;5114755;28;19923;-75
2021/09/07 05:19:17;;;;;;;;;;;;;;;;;;5114780;28;19924;-74
2021/09/07 05:21:43;;;;;;;;;;;;;;;;;;5114739;28;19928;-74
2021/09/07 05:24:10;;;;;;;;;;;;;;;;;;5114108;28;19924;-73
2021/09/07 05:26:36;;;;;;;;;;;;;;;;;;5114958;28;19924;-73
2021/09/07 05:29:02;;;;;;;;;;;;;;;;;;5114197;28;20006;-75
2021/09/07 05:31:29;;;;;;;;;;;;;;;;;;5114491;28;20289;-74
2021/09/07 05:33:55;;;;;;;;;;;;;;;;;;5114427;28;19930;-74
2021/09/07 05:36:21;;;;;;;;;;;;;;;;;;5114408;28;19930;-74
2021/09/07 05:38:48;;;;;;;;;;;;;;;;;;5114477;28;19999;-74
2021/09/07 05:41:14;;;;;;;;;;;;;;;;;;5113970;28;20385;-74
2021/09/07 05:43:40;;;;;;;;;;;;;;;;;;5114247;28;19923;-74
2021/09/07 05:46:07;;;;;;;;;;;;;;;;;;5114175;28;19924;-75
2021/09/07 05:48:33;;;;;;;;;;;;;;;;;;5114259;28;19924;-74
2021/09/07 05:50:59;;;;;;;;;;;;;;;;;;5114229;28;19938;-75
2021/09/07 05:53:25;;;;;;;;;;;;;;;;;;5113913;28;19924;-72
2021/09/07 05:55:52;;;;;;;;;;;;;;;;;;5114132;28;19924;-74
2021/09/07 05:58:18;;;;;;;;;;;;;;;;;;5113620;28;19930;-74
2021/09/07 06:00:44;;;;;;;;;;;;;;;;;;5113880;28;19928;-74
2021/09/07 06:03:11;;;;;;;;;;;;;;;;;;5113187;28;20297;-74
2021/09/07 06:05:37;;;;;;;;;;;;;;;;;;5113710;28;19924;-74
2021/09/07 06:08:03;;;;;;;;;;;;;;;;;;5113844;28;19924;-79
2021/09/07 06:10:30;;;;;;;;;;;;;;;;;;5114166;28;19946;-76
2021/09/07 06:12:56;;;;;;;;;;;;;;;;;;5114115;28;19923;-76
2021/09/07 06:15:22;;;;;;;;;;;;;;;;;;5113422;28;20396;-75
2021/09/07 06:17:49;;;;;;;;;;;;;;;;;;5113652;28;19923;-74
2021/09/07 06:20:15;;;;;;;;;;;;;;;;;;5113572;28;19927;-73
2021/09/07 06:22:41;;;;;;;;;;;;;;;;;;5113551;28;19946;-73
2021/09/07 06:25:10;;;;;;;;;;;;;;;;;;5113294;28;19924;-74
2021/09/07 06:27:36;;;;;;;;;;;;;;;;;;5113300;28;19924;-74
2021/09/07 06:30:02;;;;;;;;;;;;;;;;;;5113493;28;19927;-75
2021/09/07 06:32:29;;;;;;;;;;;;;;;;;;5113300;28;20392;-74
2021/09/07 06:34:55;;;;;;;;;;;;;;;;;;5113865;28;19928;-74
2021/09/07 06:37:21;;;;;;;;;;;;;;;;;;5113171;28;19998;-74
2021/09/07 06:39:48;;;;;;;;;;;;;;;;;;5113360;28;20360;-74
2021/09/07 06:42:14;;;;;;;;;;;;;;;;;;5113137;28;19924;-75
2021/09/07 06:44:40;;;;;;;;;;;;;;;;;;5113615;28;19924;-75
2021/09/07 06:47:06;;;;;;;;;;;;;;;;;;5112877;28;20293;-74
2021/09/07 06:49:33;;;;;;;;;;;;;;;;;;5113243;28;19924;-74
2021/09/07 06:51:59;;;;;;;;;;;;;;;;;;5113375;28;19924;-74
2021/09/07 06:54:25;;;;;;;;;;;;;;;;;;5112909;28;19949;-75
2021/09/07 06:56:52;;;;;;;;;;;;;;;;;;5113253;28;19930;-75
2021/09/07 06:59:18;;;;;;;;;;;;;;;;;;5113030;28;19932;-76
2021/09/07 07:01:44;;;;;;;;;;;;;;;;;;5113296;28;19959;-75
2021/09/07 07:04:11;;;;;;;;;;;;;;;;;;5113092;28;19930;-75
2021/09/07 07:06:37;;;;;;;;;;;;;;;;;;5112920;28;20389;-73
2021/09/07 07:09:03;;;;;;;;;;;;;;;;;;5112537;28;19930;-74
2021/09/07 07:11:30;;;;;;;;;;;;;;;;;;5113193;28;19947;-74
2021/09/07 07:13:57;;;;;;;;;;;;;;;;;;5112776;28;20274;-75
2021/09/07 07:16:23;;;;;;;;;;;;;;;;;;5117114;28;19930;-74
2021/09/07 07:18:49;;;;;;;;;;;;;;;;;;5117350;28;19930;-73
2021/09/07 07:21:16;;;;;;;;;;;;;;;;;;5116984;28;20036;-74
2021/09/07 07:23:42;;;;;;;;;;;;;;;;;;5116816;28;19924;-74
2021/09/07 07:26:08;;;;;;;;;;;;;;;;;;5116583;28;19923;-74
2021/09/07 07:28:34;;;;;;;;;;;;;;;;;;5117055;28;19924;-77
2021/09/07 07:31:01;;;;;;;;;;;;;;;;;;5116865;28;20301;-75
2021/09/07 07:33:27;;;;;;;;;;;;;;;;;;5116675;28;20005;-73
2021/09/07 07:35:53;;;;;;;;;;;;;;;;;;5117103;28;19930;-73
2021/09/07 07:38:20;;;;;;;;;;;;;;;;;;5116490;28;19923;-75
2021/09/07 07:40:46;;;;;;;;;;;;;;;;;;5116761;28;19928;-75
2021/09/07 07:43:13;;;;;;;;;;;;;;;;;;5116749;28;19924;-73
2021/09/07 07:45:39;;;;;;;;;;;;;;;;;;5116928;28;19955;-74
2021/09/07 07:48:05;;;;;;;;;;;;;;;;;;5116257;28;20397;-75
2021/09/07 07:50:31;;;;;;;;;;;;;;;;;;5116444;28;19924;-74
2021/09/07 07:53:02;;;;;;;;;;;;;;;;;;5116677;28;19924;-75
2021/09/07 07:55:28;;;;;;;;;;;;;;;;;;5116640;28;19951;-75
2021/09/07 07:57:55;;;;;;;;;;;;;;;;;;5116195;28;20386;-75
2021/09/07 08:00:21;;;;;;;;;;;;;;;;;;5116012;28;19928;-76
2021/09/07 08:02:47;;;;;;;;;;;;;;;;;;5116549;28;19939;-76
2021/09/07 08:05:13;;;;;;;;;;;;;;;;;;5115865;28;20366;-76
2021/09/07 08:07:40;;;;;;;;;;;;;;;;;;5116047;28;19924;-75
2021/09/07 08:10:06;;;;;;;;;;;;;;;;;;5116139;28;19928;-75
2021/09/07 08:12:32;;;;;;;;;;;;;;;;;;5116376;28;19930;-76
2021/09/07 08:14:59;;;;;;;;;;;;;;;;;;5116110;28;20385;-73
2021/09/07 08:17:25;;;;;;;;;;;;;;;;;;5115567;28;19931;-74
2021/09/07 08:19:51;;;;;;;;;;;;;;;;;;5116117;28;19924;-75
2021/09/07 08:22:18;;;;;;;;;;;;;;;;;;5115707;28;20377;-74
2021/09/07 08:24:45;;;;;;;;;;;;;;;;;;5115632;28;19923;-74
2021/09/07 08:27:11;;;;;;;;;;;;;;;;;;5115740;28;19946;-75
2021/09/07 08:29:38;;;;;;;;;;;;;;;;;;5115674;28;19924;-75
2021/09/07 08:32:04;;;;;;;;;;;;;;;;;;5115885;28;19931;-75
2021/09/07 08:34:30;;;;;;;;;;;;;;;;;;5115791;28;20007;-75
2021/09/07 08:36:57;;;;;;;;;;;;;;;;;;5115630;28;20412;-75
2021/09/07 08:39:23;;;;;;;;;;;;;;;;;;5115343;28;19930;-74
2021/09/07 08:41:49;;;;;;;;;;;;;;;;;;5115398;28;19930;-75
2021/09/07 08:44:16;;;;;;;;;;;;;;;;;;5115444;28;19930;-76
2021/09/07 08:46:42;;;;;;;;;;;;;;;;;;5115779;28;20289;-74
2021/09/07 08:49:08;;;;;;;;;;;;;;;;;;5115183;28;19930;-74
2021/09/07 08:51:35;;;;;;;;;;;;;;;;;;5115603;28;19931;-75
2021/09/07 08:54:01;;;;;;;;;;;;;;;;;;5115530;28;19923;-75
2021/09/07 08:56:27;;;;;;;;;;;;;;;;;;5115457;28;19980;-75
2021/09/07 08:58:53;;;;;;;;;;;;;;;;;;5115094;28;20373;-74
2021/09/07 09:01:20;;;;;;;;;;;;;;;;;;5114801;28;19923;-74
2021/09/07 09:03:46;;;;;;;;;;;;;;;;;;5115304;28;19924;-75
2021/09/07 09:06:12;;;;;;;;;;;;;;;;;;5115078;28;19924;-75
2021/09/07 09:08:39;;;;;;;;;;;;;;;;;;5115147;28;20006;-75
2021/09/07 09:11:05;;;;;;;;;;;;;;;;;;5114963;28;20275;-74
2021/09/07 09:13:31;;;;;;;;;;;;;;;;;;5114961;28;19924;-75
2021/09/07 09:15:58;;;;;;;;;;;;;;;;;;5115018;28;19934;-75
2021/09/07 09:18:24;;;;;;;;;;;;;;;;;;5114721;28;20300;-74
2021/09/07 09:20:50;;;;;;;;;;;;;;;;;;5114706;28;19931;-75
2021/09/07 09:23:17;;;;;;;;;;;;;;;;;;5114584;28;19931;-76
2021/09/07 09:25:43;;;;;;;;;;;;;;;;;;5114946;28;19924;-76
2021/09/07 09:28:09;;;;;;;;;;;;;;;;;;5114226;28;19924;-74
2021/09/07 09:30:36;;;;;;;;;;;;;;;;;;5114932;28;19923;-73
2021/09/07 09:33:02;;;;;;;;;;;;;;;;;;5114590;28;19924;-73
2021/09/07 09:35:28;;;;;;;;;;;;;;;;;;5114521;28;19928;-77
2021/09/07 09:37:54;;;;;;;;;;;;;;;;;;5113579;28;19924;-73
2021/09/07 09:40:21;;;;;;;;;;;;;;;;;;5114297;28;19950;-77
2021/09/07 09:42:48;;;;;;;;;;;;;;;;;;5114380;28;20401;-78
2021/09/07 09:45:15;;;;;;;;;;;;;;;;;;5114055;28;19974;-79
2021/09/07 09:47:42;;;;;;;;;;;;;;;;;;5114107;28;20270;-78
2021/09/07 09:50:08;;;;;;;;;;;;;;;;;;5114207;28;19935;-77
2021/09/07 09:52:35;;;;;;;;;;;;;;;;;;5114570;28;19954;-78
2021/09/07 09:55:01;;;;;;;;;;;;;;;;;;5114221;28;20507;-79
2021/09/07 09:57:27;;;;;;;;;;;;;;;;;;5114135;28;19931;-77
2021/09/07 09:59:54;;;;;;;;;;;;;;;;;;5114504;28;19931;-78
2021/09/07 10:02:20;;;;;;;;;;;;;;;;;;5114125;28;19924;-78
2021/09/07 10:04:46;;;;;;;;;;;;;;;;;;5113865;28;19932;-77
2021/09/07 10:07:12;;;;;;;;;;;;;;;;;;5113937;28;19930;-78
2021/09/07 10:09:40;;;;;;;;;;;;;;;;;;5113999;28;19947;-78
2021/09/07 10:12:06;;;;;;;;;;;;;;;;;;5113663;28;20385;-79
2021/09/07 10:14:34;;;;;;;;;;;;;;;;;;5113666;28;20293;-79
2021/09/07 10:17:06;;;;;;;;;;;;;;;;;;5113958;28;19923;-78
2021/09/07 10:19:36;;;;;;;;;;;;;;;;;;5113820;28;19978;-79
2021/09/07 10:24:46;;;;;;;;;;;;;;;;;;5113578;28;19922;-79
2021/09/07 10:27:13;;;;;;;;;;;;;;;;;;5113601;28;19931;-77
2021/09/07 10:29:39;;;;;;;;;;;;;;;;;;5113716;28;20011;-78
2021/09/07 10:32:05;;;;;;;;;;;;;;;;;;5113243;28;20351;-79
2021/09/07 10:34:32;;;;;;;;;;;;;;;;;;5113337;28;19931;-77
2021/09/07 10:36:58;;;;;;;;;;;;;;;;;;5113613;28;19928;-77
2021/09/07 10:39:24;;;;;;;;;;;;;;;;;;5112946;28;20289;-77
2021/09/07 10:41:51;;;;;;;;;;;;;;;;;;5113234;28;19923;-76
2021/09/07 10:44:17;;;;;;;;;;;;;;;;;;5112950;28;19953;-78
2021/09/07 10:46:43;;;;;;;;;;;;;;;;;;5113335;28;19924;-78
2021/09/07 10:49:10;;;;;;;;;;;;;;;;;;5113040;28;19924;-75
2021/09/07 10:51:36;;;;;;;;;;;;;;;;;;5112983;28;20386;-76
2021/09/07 10:54:02;;;;;;;;;;;;;;;;;;5113057;28;19924;-77
2021/09/07 10:56:30;;;;;;;;;;;;;;;;;;5113440;28;20289;-77
2021/09/07 10:58:56;;;;;;;;;;;;;;;;;;5112967;28;20324;-77
2021/09/07 11:01:22;;;;;;;;;;;;;;;;;;5112787;28;19930;-76
2021/09/07 11:03:49;;;;;;;;;;;;;;;;;;5112772;28;19928;-78
2021/09/07 11:06:15;;;;;;;;;;;;;;;;;;5112888;28;19930;-76
2021/09/07 11:08:45;;;;;;;;;;;;;;;;;;5112700;28;20382;-77
2021/09/07 11:11:12;;;;;;;;;;;;;;;;;;5112373;28;19924;-79
2021/09/07 11:13:38;;;;;;;;;;;;;;;;;;5112766;28;19928;-78
2021/09/07 11:16:05;;;;;;;;;;;;;;;;;;5112524;28;19930;-77
2021/09/07 11:18:32;;;;;;;;;;;;;;;;;;5112686;28;19940;-77
2021/09/07 11:20:58;;;;;;;;;;;;;;;;;;5112924;28;19928;-77
2021/09/07 11:23:24;;;;;;;;;;;;;;;;;;5112626;28;19930;-79
2021/09/07 11:25:50;;;;;;;;;;;;;;;;;;5112670;28;20282;-76
2021/09/07 11:28:17;;;;;;;;;;;;;;;;;;5112402;28;19924;-76
2021/09/07 11:30:43;;;;;;;;;;;;;;;;;;5112573;28;19923;-77
2021/09/07 11:33:10;;;;;;;;;;;;;;;;;;5112667;28;19924;-77
2021/09/07 11:35:36;;;;;;;;;;;;;;;;;;5112644;28;20393;-77
2021/09/07 11:38:02;;;;;;;;;;;;;;;;;;5112849;28;19928;-78
2021/09/07 11:40:29;;;;;;;;;;;;;;;;;;5112463;28;20411;-78
2021/09/07 11:42:55;;;;;;;;;;;;;;;;;;5112574;28;19931;-77
2021/09/07 11:45:21;;;;;;;;;;;;;;;;;;5112966;28;20291;-79
2021/09/07 11:47:48;;;;;;;;;;;;;;;;;;5112735;28;19924;-78
2021/09/07 11:50:14;;;;;;;;;;;;;;;;;;5112328;28;19924;-77
2021/09/07 11:52:40;;;;;;;;;;;;;;;;;;5112640;28;19925;-79
2021/09/07 11:55:06;;;;;;;;;;;;;;;;;;5113140;28;20370;-81
2021/09/07 11:57:33;;;;;;;;;;;;;;;;;;5113218;28;20022;-80
2021/09/07 11:59:59;;;;;;;;;;;;;;;;;;5114390;28;19928;-80
2021/09/07 12:02:26;;;;;;;;;;;;;;;;;;5116428;28;20030;-83
2021/09/07 12:04:52;;;;;;;;;;;;;;;;;;5116922;28;19923;-83
2021/09/07 12:07:18;;;;;;;;;;;;;;;;;;5117935;28;20247;-80
2021/09/07 12:12:26;;;;;;;;;;;;;;;;;;5113019;28;20296;-82
2021/09/07 12:14:56;;;;;;;;;;;;;;;;;;5117588;28;19931;-83
2021/09/07 12:17:24;;;;;;;;;;;;;;;;;;5120405;28;19934;-81
2021/09/07 12:19:50;;;;;;;;;;;;;;;;;;5116214;28;19973;-81
2021/09/07 12:22:17;;;;;;;;;;;;;;;;;;5117494;28;19931;-80
2021/09/07 12:24:44;;;;;;;;;;;;;;;;;;5115791;28;19989;-78
2021/09/07 12:27:10;;;;;;;;;;;;;;;;;;5115373;28;20377;-78
2021/09/07 12:29:36;;;;;;;;;;;;;;;;;;5115611;28;19924;-80
2021/09/07 12:32:03;;;;;;;;;;;;;;;;;;5115734;28;19924;-79
2021/09/07 12:34:32;;;;;;;;;;;;;;;;;;5115475;28;19932;-80
2021/09/07 12:36:58;;;;;;;;;;;;;;;;;;5115807;28;19923;-81
2021/09/07 12:39:25;;;;;;;;;;;;;;;;;;5115135;28;19923;-78
2021/09/07 12:41:51;;;;;;;;;;;;;;;;;;5115484;28;19924;-81
2021/09/07 12:44:17;;;;;;;;;;;;;;;;;;5115079;28;20022;-79
2021/09/07 12:46:44;;;;;;;;;;;;;;;;;;5115374;28;19981;-80
2021/09/07 12:49:10;;;;;;;;;;;;;;;;;;5115299;28;19934;-79
2021/09/07 12:51:36;;;;;;;;;;;;;;;;;;5115872;28;19924;-80
2021/09/07 12:54:03;;;;;;;;;;;;;;;;;;5115031;28;20285;-80
2021/09/07 12:56:33;;;;;;;;;;;;;;;;;;5115429;28;19932;-82
2021/09/07 12:58:59;;;;;;;;;;;;;;;;;;5115389;28;19931;-80
2021/09/07 13:01:26;;;;;;;;;;;;;;;;;;5114929;28;19930;-81
2021/09/07 13:03:52;;;;;;;;;;;;;;;;;;5115186;28;19924;-79
2021/09/07 13:06:18;;;;;;;;;;;;;;;;;;5115107;28;19930;-80
2021/09/07 13:08:45;;;;;;;;;;;;;;;;;;5115182;28;19930;-79
2021/09/07 13:11:11;;;;;;;;;;;;;;;;;;5115053;28;19924;-79
2021/09/07 13:13:43;;;;;;;;;;;;;;;;;;5114089;28;19928;-79
2021/09/07 13:16:09;;;;;;;;;;;;;;;;;;5114988;28;19928;-78
2021/09/07 13:18:36;;;;;;;;;;;;;;;;;;5114871;28;19943;-80
2021/09/07 13:21:02;;;;;;;;;;;;;;;;;;5114437;28;20277;-78
2021/09/07 13:23:28;;;;;;;;;;;;;;;;;;5114503;28;19924;-79
2021/09/07 13:25:55;;;;;;;;;;;;;;;;;;5114530;28;19930;-77
2021/09/07 13:28:21;;;;;;;;;;;;;;;;;;5114771;28;19954;-77
2021/09/07 13:30:47;;;;;;;;;;;;;;;;;;5114567;28;20381;-77
2021/09/07 13:33:14;;;;;;;;;;;;;;;;;;5114293;28;19924;-77
2021/09/07 13:35:40;;;;;;;;;;;;;;;;;;5114730;28;19934;-76
2021/09/07 13:38:06;;;;;;;;;;;;;;;;;;5114586;28;19930;-77
2021/09/07 13:40:33;;;;;;;;;;;;;;;;;;5114406;28;19923;-78
2021/09/07 13:42:59;;;;;;;;;;;;;;;;;;5114720;28;19924;-78
2021/09/07 13:45:25;;;;;;;;;;;;;;;;;;5114275;28;19924;-80
2021/09/07 13:47:52;;;;;;;;;;;;;;;;;;5114112;28;19930;-79
2021/09/07 13:50:18;;;;;;;;;;;;;;;;;;5113943;28;19924;-79
2021/09/07 13:52:44;;;;;;;;;;;;;;;;;;5114125;28;19924;-78
2021/09/07 13:55:11;;;;;;;;;;;;;;;;;;5114102;28;19950;-78
2021/09/07 13:57:37;;;;;;;;;;;;;;;;;;5114385;28;19923;-72
2021/09/07 14:00:04;;;;;;;;;;;;;;;;;;5104750;28;19930;-74
2021/09/07 14:02:30;;;;;;;;;;;;;;;;;;5096926;28;20413;-79
2021/09/07 14:04:56;;;;;;;;;;;;;;;;;;5113938;28;19937;-78
2021/09/07 14:07:23;;;;;;;;;;;;;;;;;;5105105;28;19928;-76
2021/09/07 14:09:50;;;;;;;;;;;;;;;;;;5093329;28;19931;-76
2021/09/07 14:12:16;;;;;;;;;;;;;;;;;;5093702;28;19932;-75
2021/09/07 14:14:42;;;;;;;;;;;;;;;;;;5093530;28;19924;-81
2021/09/07 14:17:09;;;;;;;;;;;;;;;;;;5112094;28;19931;-76
2021/09/07 14:19:35;;;;;;;;;;;;;;;;;;5113809;28;19923;-75
2021/09/07 14:22:01;;;;;;;;;;;;;;;;;;5113702;28;19924;-74
2021/09/07 14:24:28;;;;;;;;;;;;;;;;;;5113171;28;20259;-73
2021/09/07 14:26:54;;;;;;;;;;;;;;;;;;5113696;28;19936;-72
2021/09/07 14:29:21;;;;;;;;;;;;;;;;;;5113491;28;19973;-78
2021/09/07 14:31:47;;;;;;;;;;;;;;;;;;5113849;28;19924;-78
2021/09/07 14:34:13;;;;;;;;;;;;;;;;;;5094405;28;19923;-75
2021/09/07 14:36:40;;;;;;;;;;;;;;;;;;5093128;28;19924;-75
2021/09/07 14:39:06;;;;;;;;;;;;;;;;;;5092640;28;19938;-77
2021/09/07 14:41:32;;;;;;;;;;;;;;;;;;5095054;28;19935;-76
2021/09/07 14:43:59;;;;;;;;;;;;;;;;;;5110927;28;20306;-78
2021/09/07 14:46:25;;;;;;;;;;;;;;;;;;5111288;28;19930;-79
2021/09/07 14:48:51;;;;;;;;;;;;;;;;;;5112249;28;19923;-77
2021/09/07 14:51:17;;;;;;;;;;;;;;;;;;5112891;28;20390;-76
2021/09/07 14:53:44;;;;;;;;;;;;;;;;;;5113279;28;19924;-76
2021/09/07 14:56:10;;;;;;;;;;;;;;;;;;5113280;28;19934;-76
2021/09/07 14:58:36;;;;;;;;;;;;;;;;;;5113366;28;19930;-77
2021/09/07 15:01:03;;;;;;;;;;;;;;;;;;5113074;28;19924;-77
2021/09/07 15:03:29;;;;;;;;;;;;;;;;;;5112933;28;20313;-76
2021/09/07 15:05:55;;;;;;;;;;;;;;;;;;5113065;28;19930;-76
2021/09/07 15:08:22;;;;;;;;;;;;;;;;;;5112967;28;19928;-76
2021/09/07 15:10:48;;;;;;;;;;;;;;;;;;5113220;28;19924;-77
2021/09/07 15:13:15;;;;;;;;;;;;;;;;;;5111741;28;19924;-77
2021/09/07 15:15:42;;;;;;;;;;;;;;;;;;5112574;28;19977;-77
2021/09/07 15:18:08;;;;;;;;;;;;;;;;;;5113328;28;19931;-77
2021/09/07 15:20:34;;;;;;;;;;;;;;;;;;5112884;28;20350;-77
2021/09/07 15:23:01;;;;;;;;;;;;;;;;;;5112795;28;19924;-77
2021/09/07 15:25:28;;;;;;;;;;;;;;;;;;5112835;28;19930;-77
2021/09/07 15:27:54;;;;;;;;;;;;;;;;;;5112717;28;19930;-77
2021/09/07 15:30:20;;;;;;;;;;;;;;;;;;5112776;28;19928;-77
2021/09/07 15:32:46;;;;;;;;;;;;;;;;;;5113068;28;20324;-77
2021/09/07 15:35:13;;;;;;;;;;;;;;;;;;5112838;28;19924;-77
2021/09/07 15:37:39;;;;;;;;;;;;;;;;;;5117118;28;20023;-77
2021/09/07 15:40:06;;;;;;;;;;;;;;;;;;5116509;28;20293;-77
2021/09/07 15:42:33;;;;;;;;;;;;;;;;;;5116717;28;19923;-77
2021/09/07 15:44:59;;;;;;;;;;;;;;;;;;5116616;28;20374;-76
2021/09/07 15:47:25;;;;;;;;;;;;;;;;;;5116490;28;19924;-76
2021/09/07 15:49:52;;;;;;;;;;;;;;;;;;5116776;28;19930;-77
2021/09/07 15:52:18;;;;;;;;;;;;;;;;;;5116595;28;19923;-77
2021/09/07 15:54:44;;;;;;;;;;;;;;;;;;5116426;28;19935;-76
2021/09/07 15:57:11;;;;;;;;;;;;;;;;;;5116543;28;19978;-77
2021/09/07 15:59:37;;;;;;;;;;;;;;;;;;5116792;28;19924;-77
2021/09/07 16:02:03;;;;;;;;;;;;;;;;;;5116330;28;19950;-77
2021/09/07 16:04:30;;;;;;;;;;;;;;;;;;5116188;28;19931;-76
2021/09/07 16:06:56;;;;;;;;;;;;;;;;;;5116586;28;19930;-77
2021/09/07 16:09:22;;;;;;;;;;;;;;;;;;5115875;28;20301;-77
2021/09/07 16:11:53;;;;;;;;;;;;;;;;;;5116173;28;19924;-76
2021/09/07 16:14:19;;;;;;;;;;;;;;;;;;5115855;28;20022;-77
2021/09/07 16:16:45;;;;;;;;;;;;;;;;;;5116403;28;19923;-76
2021/09/07 16:19:12;;;;;;;;;;;;;;;;;;5116089;28;19923;-77
2021/09/07 16:21:38;;;;;;;;;;;;;;;;;;5116250;28;19924;-77
2021/09/07 16:24:07;;;;;;;;;;;;;;;;;;5115578;28;20009;-77
2021/09/07 16:26:33;;;;;;;;;;;;;;;;;;5115788;28;20019;-77
2021/09/07 16:28:59;;;;;;;;;;;;;;;;;;5115950;28;19923;-77
2021/09/07 16:31:25;;;;;;;;;;;;;;;;;;5115918;28;19923;-77
2021/09/07 16:33:53;;;;;;;;;;;;;;;;;;5116200;28;19924;-76
2021/09/07 16:36:19;;;;;;;;;;;;;;;;;;5115904;28;20015;-77
2021/09/07 16:38:46;;;;;;;;;;;;;;;;;;5115821;28;19924;-77
2021/09/07 16:41:12;;;;;;;;;;;;;;;;;;5115381;28;19924;-77
2021/09/07 16:43:39;;;;;;;;;;;;;;;;;;5115884;28;19930;-77
2021/09/07 16:46:07;;;;;;;;;;;;;;;;;;5115232;28;19930;-77